createdAt,value
2022-10-15T00:01:53.727Z,98424.59
2022-10-15T00:04:22.712Z,98423.78
2022-10-15T00:06:51.843Z,98429.00
2022-10-15T00:09:20.772Z,98426.50
2022-10-15T00:11:49.955Z,98427.63
2022-10-15T00:14:19.339Z,98429.97
2022-10-15T00:16:48.564Z,98435.22
2022-10-15T00:19:17.453Z,98434.38
2022-10-15T00:21:46.813Z,98437.84
2022-10-15T00:24:15.757Z,98435.38
2022-10-15T00:26:45.006Z,98437.41
2022-10-15T00:29:14.300Z,98447.00
2022-10-15T00:31:43.696Z,98452.16
2022-10-15T00:34:14.512Z,98449.00
2022-10-15T00:36:43.727Z,98447.34
2022-10-15T00:39:12.656Z,98446.53
2022-10-15T00:41:46.130Z,98452.03
2022-10-15T00:44:27.596Z,98443.31
2022-10-15T00:47:18.864Z,98448.88
2022-10-15T00:50:02.805Z,98448.25
2022-10-15T00:52:59.379Z,98456.78
2022-10-15T00:55:35.060Z,98457.97
2022-10-15T00:58:18.004Z,98455.03
2022-10-15T01:00:47.381Z,98457.66
2022-10-15T01:03:18.990Z,98459.03
2022-10-15T01:05:51.149Z,98459.56
2022-10-15T01:08:23.008Z,98462.25
2022-10-15T01:11:03.095Z,98457.00
2022-10-15T01:14:02.891Z,98465.38
2022-10-15T01:17:10.330Z,98465.16
2022-10-15T01:20:05.660Z,98467.09
2022-10-15T01:22:48.997Z,98470.56
2022-10-15T01:25:39.873Z,98462.09
2022-10-15T01:28:45.120Z,98468.25
2022-10-15T01:31:38.017Z,98475.25
2022-10-15T01:37:10.636Z,98475.25
2022-10-15T01:39:49.498Z,98477.78
2022-10-15T01:42:28.233Z,98479.78
2022-10-15T01:45:08.320Z,98486.56
2022-10-15T01:47:58.485Z,98487.34
2022-10-15T01:50:32.938Z,98488.25
2022-10-15T01:53:06.398Z,98487.97
2022-10-15T01:55:38.707Z,98493.78
2022-10-15T01:58:12.256Z,98486.47
2022-10-15T02:00:46.215Z,98493.97
2022-10-15T02:03:17.230Z,98495.00
2022-10-15T02:06:08.087Z,98497.88
2022-10-15T02:08:57.151Z,98501.66
2022-10-15T02:11:28.137Z,98489.63
2022-10-15T02:14:21.137Z,98489.66
2022-10-15T02:17:12.728Z,98495.53
2022-10-15T02:20:01.759Z,98495.41
2022-10-15T02:22:58.023Z,98499.66
2022-10-15T02:25:29.779Z,98496.50
2022-10-15T02:28:05.085Z,98507.28
2022-10-15T02:30:40.153Z,98503.41
2022-10-15T02:33:14.534Z,98506.59
2022-10-15T02:35:47.543Z,98506.81
2022-10-15T02:38:21.525Z,98506.50
2022-10-15T02:40:53.158Z,98507.84
2022-10-15T02:43:24.358Z,98518.09
2022-10-15T02:45:54.424Z,98526.13
2022-10-15T02:48:25.137Z,98522.22
2022-10-15T02:50:56.808Z,98521.19
2022-10-15T02:53:27.985Z,98531.59
2022-10-15T02:55:58.985Z,98534.50
2022-10-15T02:58:31.025Z,98541.84
2022-10-15T03:01:02.221Z,98543.88
2022-10-15T03:03:33.783Z,98545.28
2022-10-15T03:06:04.585Z,98542.31
2022-10-15T03:08:35.335Z,98555.91
2022-10-15T03:11:08.052Z,98555.41
2022-10-15T03:13:41.556Z,98552.16
2022-10-15T03:16:13.733Z,98558.66
2022-10-15T03:18:46.629Z,98556.59
2022-10-15T03:21:18.710Z,98557.69
2022-10-15T03:23:49.515Z,98556.63
2022-10-15T03:26:25.437Z,98560.41
2022-10-15T03:28:57.161Z,98561.63
2022-10-15T03:31:39.128Z,98563.97
2022-10-15T03:34:11.260Z,98568.56
2022-10-15T03:36:42.237Z,98565.22
2022-10-15T03:39:15.277Z,98569.84
2022-10-15T03:41:46.253Z,98569.38
2022-10-15T03:44:25.029Z,98573.31
2022-10-15T03:47:06.406Z,98570.03
2022-10-15T03:49:45.755Z,98564.72
2022-10-15T03:52:16.770Z,98573.09
2022-10-15T03:54:48.470Z,98570.56
2022-10-15T03:57:22.613Z,98574.69
2022-10-15T04:00:02.507Z,98570.72
2022-10-15T04:02:42.184Z,98568.84
2022-10-15T04:05:25.179Z,98564.88
2022-10-15T04:08:01.618Z,98570.59
2022-10-15T04:10:35.336Z,98566.50
2022-10-15T04:13:05.965Z,98563.25
2022-10-15T04:15:41.197Z,98568.56
2022-10-15T04:18:15.267Z,98573.78
2022-10-15T04:20:46.716Z,98569.53
2022-10-15T04:23:22.649Z,98573.72
2022-10-15T04:26:11.165Z,98577.13
2022-10-15T04:28:41.575Z,98577.34
2022-10-15T04:31:11.851Z,98578.22
2022-10-15T04:33:41.887Z,98568.09
2022-10-15T04:36:15.071Z,98571.06
2022-10-15T04:39:06.917Z,98573.81
2022-10-15T04:41:41.969Z,98580.16
2022-10-15T04:44:14.891Z,98569.53
2022-10-15T04:46:50.241Z,98578.50
2022-10-15T04:49:30.277Z,98570.47
2022-10-15T04:52:00.498Z,98576.38
2022-10-15T04:54:38.858Z,98578.59
2022-10-15T04:57:08.826Z,98576.78
2022-10-15T04:59:37.812Z,98582.19
2022-10-15T05:02:25.178Z,98572.69
2022-10-15T05:05:11.010Z,98573.41
2022-10-15T05:07:50.146Z,98569.06
2022-10-15T05:10:19.301Z,98574.75
2022-10-15T05:12:50.404Z,98568.44
2022-10-15T05:15:29.766Z,98569.13
2022-10-15T05:17:59.111Z,98558.97
2022-10-15T05:20:36.705Z,98565.84
2022-10-15T05:23:07.270Z,98559.56
2022-10-15T05:25:37.801Z,98551.69
2022-10-15T05:28:07.432Z,98554.81
2022-10-15T05:30:36.783Z,98549.94
2022-10-15T05:33:06.509Z,98549.28
2022-10-15T05:35:35.450Z,98547.50
2022-10-15T05:38:06.819Z,98547.56
2022-10-15T05:40:36.051Z,98547.81
2022-10-15T05:43:08.218Z,98549.38
2022-10-15T05:45:37.432Z,98542.66
2022-10-15T05:48:08.524Z,98535.59
2022-10-15T05:50:38.316Z,98538.97
2022-10-15T05:53:11.301Z,98545.31
2022-10-15T05:55:44.188Z,98533.94
2022-10-15T05:58:13.576Z,98540.09
2022-10-15T06:00:42.537Z,98533.19
2022-10-15T06:03:15.940Z,98527.94
2022-10-15T06:05:45.089Z,98533.22
2022-10-15T06:08:14.531Z,98530.13
2022-10-15T06:10:43.921Z,98521.19
2022-10-15T06:13:13.738Z,98516.16
2022-10-15T06:15:46.705Z,98509.44
2022-10-15T06:18:18.993Z,98508.22
2022-10-15T06:20:54.194Z,98505.94
2022-10-15T06:23:25.490Z,98502.09
2022-10-15T06:25:54.727Z,98504.16
2022-10-15T06:28:24.273Z,98496.31
2022-10-15T06:30:53.820Z,98497.75
2022-10-15T06:33:22.764Z,98494.97
2022-10-15T06:35:51.899Z,98494.38
2022-10-15T06:38:20.741Z,98495.47
2022-10-15T06:40:49.940Z,98485.09
2022-10-15T06:43:18.911Z,98495.94
2022-10-15T06:45:48.093Z,98492.19
2022-10-15T06:48:19.110Z,98487.88
2022-10-15T06:50:48.466Z,98475.13
2022-10-15T06:53:17.812Z,98473.56
2022-10-15T06:55:47.298Z,98477.13
2022-10-15T06:58:16.119Z,98475.66
2022-10-15T07:00:45.272Z,98464.31
2022-10-15T07:03:14.335Z,98461.50
2022-10-15T07:05:43.655Z,98460.03
2022-10-15T07:08:16.852Z,98461.72
2022-10-15T07:10:49.141Z,98462.06
2022-10-15T07:13:18.392Z,98452.31
2022-10-15T07:15:48.284Z,98446.69
2022-10-15T07:18:18.111Z,98449.50
2022-10-15T07:20:47.511Z,98447.88
2022-10-15T07:23:16.868Z,98434.63
2022-10-15T07:25:45.950Z,98439.16
2022-10-15T07:28:15.199Z,98436.84
2022-10-15T07:30:44.137Z,98428.59
2022-10-15T07:33:13.392Z,98431.16
2022-10-15T07:35:52.460Z,98417.00
2022-10-15T07:38:21.846Z,98412.63
2022-10-15T07:40:50.737Z,98413.47
2022-10-15T07:43:19.986Z,98414.28
2022-10-15T07:45:50.629Z,98411.28
2022-10-15T07:48:19.968Z,98402.28
2022-10-15T07:50:48.882Z,98398.69
2022-10-15T07:53:20.529Z,98396.78
2022-10-15T07:55:59.789Z,98394.31
2022-10-15T07:58:35.648Z,98390.72
2022-10-15T08:01:05.766Z,98393.44
2022-10-15T08:03:37.053Z,98390.00
2022-10-15T08:06:08.432Z,98392.63
2022-10-15T08:08:38.793Z,98378.41
2022-10-15T08:11:09.919Z,98385.06
2022-10-15T08:13:42.497Z,98372.69
2022-10-15T08:16:13.572Z,98371.00
2022-10-15T08:18:49.083Z,98368.16
2022-10-15T08:21:18.305Z,98365.81
2022-10-15T08:23:47.313Z,98362.03
2022-10-15T08:26:16.594Z,98363.75
2022-10-15T08:28:45.769Z,98367.53
2022-10-15T08:31:15.787Z,98356.63
2022-10-15T08:33:47.073Z,98349.19
2022-10-15T08:36:17.187Z,98356.47
2022-10-15T08:38:46.736Z,98360.50
2022-10-15T08:41:39.246Z,98349.81
2022-10-15T08:44:15.481Z,98352.75
2022-10-15T08:46:50.540Z,98348.13
2022-10-15T08:49:36.405Z,98347.06
2022-10-15T08:52:17.232Z,98342.97
2022-10-15T08:54:46.403Z,98337.47
2022-10-15T08:57:47.409Z,98344.22
2022-10-15T09:00:37.241Z,98342.53
2022-10-15T09:03:27.259Z,98336.00
2022-10-15T09:06:05.049Z,98334.16
2022-10-15T09:09:04.943Z,98333.78
2022-10-15T09:11:54.899Z,98331.66
2022-10-15T09:14:34.802Z,98334.19
2022-10-15T09:17:09.233Z,98329.91
2022-10-15T09:19:39.609Z,98326.88
2022-10-15T09:22:16.230Z,98327.44
2022-10-15T09:24:47.354Z,98327.31
2022-10-15T09:27:29.965Z,98325.25
2022-10-15T09:30:24.470Z,98328.16
2022-10-15T09:33:01.757Z,98329.72
2022-10-15T09:35:38.536Z,98333.47
2022-10-15T09:38:28.612Z,98330.78
2022-10-15T09:41:20.678Z,98323.25
2022-10-15T09:43:52.868Z,98316.84
2022-10-15T09:46:24.267Z,98311.56
2022-10-15T09:49:10.535Z,98316.47
2022-10-15T09:51:56.474Z,98307.53
2022-10-15T09:54:26.720Z,98306.13
2022-10-15T09:56:58.253Z,98310.63
2022-10-15T09:59:28.226Z,98307.69
2022-10-15T10:02:04.905Z,98308.16
2022-10-15T10:04:38.079Z,98306.63
2022-10-15T10:07:09.425Z,98310.66
2022-10-15T10:09:54.931Z,98308.09
2022-10-15T10:12:29.525Z,98310.59
2022-10-15T10:15:02.809Z,98308.56
2022-10-15T10:17:35.122Z,98315.91
2022-10-15T10:20:16.903Z,98310.59
2022-10-15T10:22:56.012Z,98308.75
2022-10-15T10:25:27.949Z,98309.13
2022-10-15T10:28:15.459Z,98303.56
2022-10-15T10:31:04.579Z,98312.13
2022-10-15T10:33:51.724Z,98314.94
2022-10-15T10:36:42.030Z,98314.78
2022-10-15T10:39:16.492Z,98315.69
2022-10-15T10:41:59.654Z,98318.38
2022-10-15T10:44:40.417Z,98311.13
2022-10-15T10:47:16.684Z,98312.06
2022-10-15T10:49:56.884Z,98313.50
2022-10-15T10:52:26.077Z,98315.31
2022-10-15T10:55:15.282Z,98316.91
2022-10-15T10:57:46.701Z,98315.97
2022-10-15T11:00:25.312Z,98312.66
2022-10-15T11:02:55.249Z,98316.72
2022-10-15T11:05:29.978Z,98314.59
2022-10-15T11:08:17.564Z,98318.06
2022-10-15T11:10:54.200Z,98315.06
2022-10-15T11:13:34.112Z,98317.19
2022-10-15T11:16:11.209Z,98317.72
2022-10-15T11:19:18.902Z,98324.22
2022-10-15T11:22:24.241Z,98315.44
2022-10-15T11:25:22.324Z,98320.03
2022-10-15T11:28:10.466Z,98321.84
2022-10-15T11:30:42.723Z,98323.19
2022-10-15T11:33:23.744Z,98327.19
2022-10-15T11:36:25.116Z,98322.75
2022-10-15T11:39:15.985Z,98323.13
2022-10-15T11:41:59.711Z,98321.97
2022-10-15T11:44:51.251Z,98319.13
2022-10-15T11:47:41.401Z,98324.63
2022-10-15T11:50:25.188Z,98322.25
2022-10-15T11:53:14.670Z,98329.72
2022-10-15T11:56:06.603Z,98324.69
2022-10-15T11:58:44.875Z,98327.91
2022-10-15T12:01:20.956Z,98326.47
2022-10-15T12:04:05.270Z,98332.84
2022-10-15T12:06:42.361Z,98334.19
2022-10-15T12:09:16.926Z,98332.34
2022-10-15T12:12:06.884Z,98331.94
2022-10-15T12:14:52.690Z,98336.84
2022-10-15T12:17:44.960Z,98333.72
2022-10-15T12:20:17.112Z,98332.31
2022-10-15T12:22:49.316Z,98331.47
2022-10-15T12:25:54.960Z,98331.97
2022-10-15T12:29:03.186Z,98327.28
2022-10-15T12:31:54.598Z,98332.31
2022-10-15T12:34:42.468Z,98333.78
2022-10-15T12:37:20.438Z,98335.78
2022-10-15T12:40:00.878Z,98332.94
2022-10-15T12:42:34.266Z,98334.34
2022-10-15T12:45:10.051Z,98332.09
2022-10-15T12:47:57.224Z,98336.16
2022-10-15T12:50:32.223Z,98341.63
2022-10-15T12:53:30.895Z,98341.78
2022-10-15T12:56:12.221Z,98338.91
2022-10-15T12:58:45.277Z,98350.56
2022-10-15T13:01:17.446Z,98341.59
2022-10-15T13:03:52.697Z,98347.22
2022-10-15T13:06:22.071Z,98350.44
2022-10-15T13:09:17.921Z,98353.56
2022-10-15T13:12:01.481Z,98349.13
2022-10-15T13:14:37.107Z,98355.38
2022-10-15T13:17:21.275Z,98351.78
2022-10-15T13:20:28.004Z,98353.91
2022-10-15T13:23:28.980Z,98354.81
2022-10-15T13:26:13.910Z,98360.09
2022-10-15T13:28:44.861Z,98363.25
2022-10-15T13:31:30.343Z,98368.59
2022-10-15T13:34:05.878Z,98365.78
2022-10-15T13:36:36.492Z,98370.53
2022-10-15T13:39:09.182Z,98374.97
2022-10-15T13:41:43.098Z,98368.44
2022-10-15T13:44:24.020Z,98376.88
2022-10-15T13:46:53.208Z,98374.88
2022-10-15T13:49:23.190Z,98379.72
2022-10-15T13:51:56.410Z,98378.25
2022-10-15T13:54:30.169Z,98383.34
2022-10-15T13:57:03.029Z,98389.50
2022-10-15T13:59:33.431Z,98391.38
2022-10-15T14:02:05.325Z,98390.53
2022-10-15T14:04:35.281Z,98403.09
2022-10-15T14:07:25.208Z,98402.38
2022-10-15T14:09:54.792Z,98397.78
2022-10-15T14:12:24.721Z,98404.09
2022-10-15T14:14:54.012Z,98403.88
2022-10-15T14:17:27.192Z,98410.09
2022-10-15T14:20:27.314Z,98415.47
2022-10-15T14:22:56.620Z,98414.53
2022-10-15T14:25:27.119Z,98419.69
2022-10-15T14:27:56.931Z,98416.59
2022-10-15T14:30:33.116Z,98422.88
2022-10-15T14:33:03.325Z,98425.56
2022-10-15T14:35:39.611Z,98426.63
2022-10-15T14:38:11.693Z,98428.19
2022-10-15T14:40:40.967Z,98437.72
2022-10-15T14:43:18.731Z,98435.44
2022-10-15T14:45:54.001Z,98433.09
2022-10-15T14:48:35.477Z,98437.84
2022-10-15T14:51:08.346Z,98440.63
2022-10-15T14:53:40.515Z,98445.13
2022-10-15T14:56:20.508Z,98454.47
2022-10-15T14:58:53.399Z,98442.69
2022-10-15T15:01:22.861Z,98446.66
2022-10-15T15:03:54.706Z,98445.00
2022-10-15T15:06:24.110Z,98450.00
2022-10-15T15:08:53.163Z,98453.00
2022-10-15T15:11:26.910Z,98450.81
2022-10-15T15:13:56.574Z,98451.81
2022-10-15T15:16:25.407Z,98449.59
2022-10-15T15:18:54.528Z,98449.13
2022-10-15T15:21:25.422Z,98454.28
2022-10-15T15:23:54.648Z,98455.94
2022-10-15T15:26:24.716Z,98456.72
2022-10-15T15:28:54.197Z,98459.44
2022-10-15T15:31:23.060Z,98462.91
2022-10-15T15:33:52.325Z,98461.22
2022-10-15T15:36:23.697Z,98459.63
2022-10-15T15:38:54.520Z,98464.03
2022-10-15T15:41:25.894Z,98468.34
2022-10-15T15:43:57.934Z,98468.81
2022-10-15T15:46:27.368Z,98461.78
2022-10-15T15:48:57.956Z,98471.09
2022-10-15T15:51:33.060Z,98479.13
2022-10-15T15:54:05.552Z,98478.50
2022-10-15T15:56:36.126Z,98480.56
2022-10-15T15:59:05.260Z,98483.19
2022-10-15T16:01:34.396Z,98485.25
2022-10-15T16:04:03.632Z,98487.47
2022-10-15T16:06:32.594Z,98492.53
2022-10-15T16:09:01.838Z,98496.41
2022-10-15T16:11:31.042Z,98484.00
2022-10-15T16:14:00.716Z,98484.69
2022-10-15T16:16:29.576Z,98489.75
2022-10-15T16:18:58.871Z,98488.72
2022-10-15T16:21:28.651Z,98487.19
2022-10-15T16:23:57.821Z,98492.38
2022-10-15T16:26:27.655Z,98489.16
2022-10-15T16:28:57.645Z,98498.72
2022-10-15T16:31:30.533Z,98492.38
2022-10-15T16:34:00.256Z,98499.06
2022-10-15T16:36:29.461Z,98499.25
2022-10-15T16:38:58.528Z,98506.53
2022-10-15T16:41:27.897Z,98502.69
2022-10-15T16:43:56.896Z,98505.38
2022-10-15T16:46:26.038Z,98508.97
2022-10-15T16:48:57.256Z,98508.09
2022-10-15T16:51:27.014Z,98507.81
2022-10-15T16:53:56.199Z,98505.25
2022-10-15T16:56:27.976Z,98499.09
2022-10-15T16:58:58.270Z,98513.75
2022-10-15T17:01:30.492Z,98506.66
2022-10-15T17:04:01.043Z,98511.13
2022-10-15T17:06:32.216Z,98507.00
2022-10-15T17:09:05.115Z,98513.41
2022-10-15T17:11:40.389Z,98520.88
2022-10-15T17:14:15.343Z,98504.88
2022-10-15T17:16:53.179Z,98509.50
2022-10-15T17:19:30.245Z,98517.91
2022-10-15T17:22:02.626Z,98519.41
2022-10-15T17:24:31.533Z,98511.03
2022-10-15T17:27:00.713Z,98520.38
2022-10-15T17:29:33.351Z,98523.91
2022-10-15T17:32:03.943Z,98519.41
2022-10-15T17:34:33.267Z,98514.44
2022-10-15T17:37:03.042Z,98518.75
2022-10-15T17:39:32.613Z,98522.22
2022-10-15T17:42:01.618Z,98520.53
2022-10-15T17:44:30.963Z,98523.16
2022-10-15T17:46:59.863Z,98518.84
2022-10-15T17:49:30.128Z,98518.16
2022-10-15T17:51:59.281Z,98514.63
2022-10-15T17:54:28.151Z,98510.91
2022-10-15T17:56:57.548Z,98515.28
2022-10-15T17:59:26.438Z,98514.50
2022-10-15T18:01:59.972Z,98521.47
2022-10-15T18:04:32.553Z,98524.25
2022-10-15T18:07:01.647Z,98519.00
2022-10-15T18:09:30.494Z,98519.19
2022-10-15T18:12:01.579Z,98518.84
2022-10-15T18:14:32.932Z,98518.25
2022-10-15T18:17:02.189Z,98518.50
2022-10-15T18:19:31.362Z,98524.59
2022-10-15T18:22:00.579Z,98518.69
2022-10-15T18:24:29.649Z,98510.22
2022-10-15T18:27:01.031Z,98515.22
2022-10-15T18:29:30.178Z,98518.19
2022-10-15T18:31:59.080Z,98520.88
2022-10-15T18:34:31.427Z,98512.31
2022-10-15T18:37:01.313Z,98507.00
2022-10-15T18:39:30.398Z,98515.28
2022-10-15T18:41:59.523Z,98506.06
2022-10-15T18:44:30.261Z,98514.44
2022-10-15T18:46:59.455Z,98515.13
2022-10-15T18:49:31.177Z,98505.38
2022-10-15T18:52:06.465Z,98501.59
2022-10-15T18:54:45.227Z,98503.38
2022-10-15T18:57:14.345Z,98506.84
2022-10-15T18:59:43.504Z,98500.81
2022-10-15T19:02:12.398Z,98503.56
2022-10-15T19:04:41.806Z,98498.53
2022-10-15T19:07:10.914Z,98498.47
2022-10-15T19:09:39.983Z,98506.41
2022-10-15T19:12:09.530Z,98510.13
2022-10-15T19:14:38.684Z,98499.75
2022-10-15T19:17:08.842Z,98509.38
2022-10-15T19:19:39.797Z,98517.22
2022-10-15T19:22:08.953Z,98503.28
2022-10-15T19:24:37.938Z,98502.44
2022-10-15T19:29:36.719Z,98512.91
2022-10-15T19:32:06.103Z,98509.00
2022-10-15T19:34:36.545Z,98516.75
2022-10-15T19:37:05.851Z,98507.44
2022-10-15T19:39:38.036Z,98505.09
2022-10-15T19:42:09.748Z,98504.59
2022-10-15T19:44:39.066Z,98497.66
2022-10-15T19:47:08.077Z,98504.72
2022-10-15T19:49:37.238Z,98494.25
2022-10-15T19:52:06.356Z,98505.56
2022-10-15T19:54:38.702Z,98503.91
2022-10-15T19:57:07.887Z,98507.44
2022-10-15T19:59:39.823Z,98496.28
2022-10-15T20:02:13.310Z,98495.59
2022-10-15T20:04:42.427Z,98494.41
2022-10-15T20:07:11.385Z,98494.16
2022-10-15T20:09:43.456Z,98490.81
2022-10-15T20:12:15.332Z,98492.81
2022-10-15T20:14:44.605Z,98492.22
2022-10-15T20:17:13.606Z,98491.00
2022-10-15T20:19:42.890Z,98490.75
2022-10-15T20:22:11.990Z,98492.38
2022-10-15T20:24:41.407Z,98497.75
2022-10-15T20:27:10.301Z,98486.47
2022-10-15T20:29:39.646Z,98487.44
2022-10-15T20:32:23.079Z,98486.84
2022-10-15T20:34:59.432Z,98481.00
2022-10-15T20:37:28.331Z,98480.69
2022-10-15T20:42:31.402Z,98475.00
2022-10-15T20:45:00.392Z,98478.16
2022-10-15T20:47:29.393Z,98476.22
2022-10-15T20:49:58.509Z,98479.31
2022-10-15T20:52:27.973Z,98479.66
2022-10-15T20:54:57.164Z,98482.34
2022-10-15T20:57:26.512Z,98479.25
2022-10-15T20:59:55.419Z,98480.88
2022-10-15T21:02:24.887Z,98483.16
2022-10-15T21:04:54.566Z,98480.22
2022-10-15T21:07:25.678Z,98481.34
2022-10-15T21:09:55.101Z,98481.88
2022-10-15T21:12:24.233Z,98485.41
2022-10-15T21:14:53.829Z,98484.72
2022-10-15T21:17:22.885Z,98479.31
2022-10-15T21:19:52.948Z,98481.66
2022-10-15T21:22:22.473Z,98483.50
2022-10-15T21:24:51.454Z,98487.09
2022-10-15T21:27:20.549Z,98483.78
2022-10-15T21:29:50.467Z,98479.84
2022-10-15T21:32:19.598Z,98480.03
2022-10-15T21:34:48.601Z,98490.47
2022-10-15T21:37:17.890Z,98490.09
2022-10-15T21:39:46.771Z,98490.84
2022-10-15T21:42:16.162Z,98492.34
2022-10-15T21:44:47.847Z,98492.72
2022-10-15T21:47:17.524Z,98492.41
2022-10-15T21:49:46.853Z,98493.47
2022-10-15T21:52:16.197Z,98499.03
2022-10-15T21:54:45.190Z,98499.81
2022-10-15T21:57:14.275Z,98503.19
2022-10-15T21:59:43.114Z,98495.50
2022-10-15T22:02:12.760Z,98493.19
2022-10-15T22:04:41.895Z,98507.88
2022-10-15T22:07:12.304Z,98503.72
2022-10-15T22:09:41.656Z,98504.72
2022-10-15T22:12:10.583Z,98511.81
2022-10-15T22:14:39.713Z,98512.03
2022-10-15T22:17:08.792Z,98510.25
2022-10-15T22:19:37.911Z,98513.78
2022-10-15T22:22:06.766Z,98508.72
2022-10-15T22:24:36.421Z,98511.25
2022-10-15T22:27:05.609Z,98513.03
2022-10-15T22:29:35.971Z,98514.84
2022-10-15T22:32:05.040Z,98515.50
2022-10-15T22:34:35.882Z,98520.88
2022-10-15T22:37:05.379Z,98520.31
2022-10-15T22:39:34.238Z,98513.59
2022-10-15T22:42:03.814Z,98517.91
2022-10-15T22:44:32.903Z,98519.66
2022-10-15T22:47:02.238Z,98514.13
2022-10-15T22:49:31.225Z,98517.63
2022-10-15T22:52:00.394Z,98523.31
2022-10-15T22:54:29.261Z,98514.53
2022-10-15T22:56:58.524Z,98519.91
2022-10-15T22:59:27.541Z,98521.69
2022-10-15T23:01:56.579Z,98528.69
2022-10-15T23:04:25.799Z,98531.38
2022-10-15T23:06:55.028Z,98533.22
2022-10-15T23:09:23.893Z,98538.28
2022-10-15T23:11:53.017Z,98536.59
2022-10-15T23:14:22.103Z,98537.44
2022-10-15T23:16:51.378Z,98543.03
2022-10-15T23:19:22.659Z,98543.81
2022-10-15T23:21:54.077Z,98550.00
2022-10-15T23:24:26.027Z,98547.19
2022-10-15T23:26:55.286Z,98555.22
2022-10-15T23:29:26.483Z,98557.03
2022-10-15T23:31:56.184Z,98562.59
2022-10-15T23:34:27.403Z,98565.91
2022-10-15T23:36:56.514Z,98573.34
2022-10-15T23:39:27.339Z,98576.38
2022-10-15T23:41:57.081Z,98574.19
2022-10-15T23:44:26.571Z,98582.84
2022-10-15T23:46:56.320Z,98590.50
2022-10-15T23:49:25.203Z,98593.25
2022-10-15T23:51:54.357Z,98601.84
2022-10-15T23:54:23.842Z,98587.72
2022-10-15T23:56:53.153Z,98587.81
2022-10-15T23:59:22.361Z,98586.03
